sensor_id;sensor_type;location;lat;lon;timestamp;temperature;humidity
9564;DHT22;4820;50.870;4.702;2023-02-11T00:02:05;7.10;99.90
9564;DHT22;4820;50.870;4.702;2023-02-11T00:04:32;7.00;99.90
9564;DHT22;4820;50.870;4.702;2023-02-11T00:06:58;7.00;99.90
9564;DHT22;4820;50.870;4.702;2023-02-11T00:09:24;7.00;99.90
9564;DHT22;4820;50.870;4.702;2023-02-11T00:11:50;6.90;99.90
9564;DHT22;4820;50.870;4.702;2023-02-11T00:14:15;6.90;99.90
9564;DHT22;4820;50.870;4.702;2023-02-11T00:16:41;6.90;99.90
9564;DHT22;4820;50.870;4.702;2023-02-11T00:19:07;6.80;99.90
9564;DHT22;4820;50.870;4.702;2023-02-11T00:21:33;6.80;99.90
9564;DHT22;4820;50.870;4.702;2023-02-11T00:23:59;6.80;99.90
9564;DHT22;4820;50.870;4.702;2023-02-11T00:26:30;6.70;99.90
9564;DHT22;4820;50.870;4.702;2023-02-11T00:28:59;6.80;99.90
9564;DHT22;4820;50.870;4.702;2023-02-11T00:31:27;6.70;99.90
9564;DHT22;4820;50.870;4.702;2023-02-11T00:33:54;6.70;99.90
9564;DHT22;4820;50.870;4.702;2023-02-11T00:36:23;6.70;99.90
9564;DHT22;4820;50.870;4.702;2023-02-11T00:38:50;6.70;99.90
9564;DHT22;4820;50.870;4.702;2023-02-11T00:41:21;6.60;99.90
9564;DHT22;4820;50.870;4.702;2023-02-11T00:43:47;6.60;99.90
9564;DHT22;4820;50.870;4.702;2023-02-11T00:46:14;6.60;99.90
9564;DHT22;4820;50.870;4.702;2023-02-11T00:48:41;6.60;99.90
9564;DHT22;4820;50.870;4.702;2023-02-11T00:51:07;6.60;99.90
9564;DHT22;4820;50.870;4.702;2023-02-11T00:53:33;6.60;99.90
9564;DHT22;4820;50.870;4.702;2023-02-11T00:55:59;6.50;99.90
9564;DHT22;4820;50.870;4.702;2023-02-11T00:58:26;6.50;99.90
9564;DHT22;4820;50.870;4.702;2023-02-11T01:00:52;6.50;99.90
9564;DHT22;4820;50.870;4.702;2023-02-11T01:03:18;6.40;99.90
9564;DHT22;4820;50.870;4.702;2023-02-11T01:05:44;6.40;99.90
9564;DHT22;4820;50.870;4.702;2023-02-11T01:08:11;6.40;99.90
9564;DHT22;4820;50.870;4.702;2023-02-11T01:10:36;6.40;99.90
9564;DHT22;4820;50.870;4.702;2023-02-11T01:13:02;6.30;99.90
9564;DHT22;4820;50.870;4.702;2023-02-11T01:15:32;6.30;99.90
9564;DHT22;4820;50.870;4.702;2023-02-11T01:17:59;6.30;99.90
9564;DHT22;4820;50.870;4.702;2023-02-11T01:20:26;6.40;99.90
9564;DHT22;4820;50.870;4.702;2023-02-11T01:22:52;6.40;99.90
9564;DHT22;4820;50.870;4.702;2023-02-11T01:25:18;6.40;99.90
9564;DHT22;4820;50.870;4.702;2023-02-11T01:27:45;6.40;99.90
9564;DHT22;4820;50.870;4.702;2023-02-11T01:30:12;6.40;99.90
9564;DHT22;4820;50.870;4.702;2023-02-11T01:32:38;6.40;99.90
9564;DHT22;4820;50.870;4.702;2023-02-11T01:35:04;6.40;99.90
9564;DHT22;4820;50.870;4.702;2023-02-11T01:37:34;6.40;99.90
9564;DHT22;4820;50.870;4.702;2023-02-11T01:40:05;6.40;99.90
9564;DHT22;4820;50.870;4.702;2023-02-11T01:42:32;6.40;99.90
9564;DHT22;4820;50.870;4.702;2023-02-11T01:44:59;6.40;99.90
9564;DHT22;4820;50.870;4.702;2023-02-11T01:47:26;6.40;99.90
9564;DHT22;4820;50.870;4.702;2023-02-11T01:49:55;6.40;99.90
9564;DHT22;4820;50.870;4.702;2023-02-11T01:55:06;6.40;99.90
9564;DHT22;4820;50.870;4.702;2023-02-11T01:57:53;6.40;99.90
9564;DHT22;4820;50.870;4.702;2023-02-11T02:00:39;6.40;99.90
9564;DHT22;4820;50.870;4.702;2023-02-11T02:03:13;6.30;99.90
9564;DHT22;4820;50.870;4.702;2023-02-11T02:05:51;6.30;99.90
9564;DHT22;4820;50.870;4.702;2023-02-11T02:08:38;6.30;99.90
9564;DHT22;4820;50.870;4.702;2023-02-11T02:11:05;6.40;99.90
9564;DHT22;4820;50.870;4.702;2023-02-11T02:13:34;6.40;99.90
9564;DHT22;4820;50.870;4.702;2023-02-11T02:16:01;6.50;99.90
9564;DHT22;4820;50.870;4.702;2023-02-11T02:34:52;6.60;99.90
9564;DHT22;4820;50.870;4.702;2023-02-11T02:40:21;6.70;99.90
9564;DHT22;4820;50.870;4.702;2023-02-11T02:42:48;6.70;99.90
9564;DHT22;4820;50.870;4.702;2023-02-11T02:45:18;6.70;99.90
9564;DHT22;4820;50.870;4.702;2023-02-11T02:47:44;6.70;99.90
9564;DHT22;4820;50.870;4.702;2023-02-11T02:50:11;6.70;99.90
9564;DHT22;4820;50.870;4.702;2023-02-11T02:52:49;6.70;99.90
9564;DHT22;4820;50.870;4.702;2023-02-11T02:58:21;6.70;99.90
9564;DHT22;4820;50.870;4.702;2023-02-11T03:01:09;6.70;99.90
9564;DHT22;4820;50.870;4.702;2023-02-11T03:04:11;6.80;99.90
9564;DHT22;4820;50.870;4.702;2023-02-11T03:09:26;6.80;99.90
9564;DHT22;4820;50.870;4.702;2023-02-11T03:11:53;6.80;99.90
9564;DHT22;4820;50.870;4.702;2023-02-11T03:14:21;6.80;99.90
9564;DHT22;4820;50.870;4.702;2023-02-11T03:16:50;6.90;99.90
9564;DHT22;4820;50.870;4.702;2023-02-11T03:19:25;6.90;99.90
9564;DHT22;4820;50.870;4.702;2023-02-11T03:21:52;6.90;99.90
9564;DHT22;4820;50.870;4.702;2023-02-11T03:24:30;6.90;99.90
9564;DHT22;4820;50.870;4.702;2023-02-11T03:27:02;6.90;99.90
9564;DHT22;4820;50.870;4.702;2023-02-11T03:32:28;6.90;99.90
9564;DHT22;4820;50.870;4.702;2023-02-11T03:34:58;6.90;99.90
9564;DHT22;4820;50.870;4.702;2023-02-11T03:37:30;6.80;99.90
9564;DHT22;4820;50.870;4.702;2023-02-11T03:40:04;6.90;99.90
9564;DHT22;4820;50.870;4.702;2023-02-11T03:42:47;6.80;99.90
9564;DHT22;4820;50.870;4.702;2023-02-11T03:45:17;6.90;99.90
9564;DHT22;4820;50.870;4.702;2023-02-11T03:48:04;6.90;99.90
9564;DHT22;4820;50.870;4.702;2023-02-11T03:50:32;6.80;99.90
9564;DHT22;4820;50.870;4.702;2023-02-11T03:53:01;6.90;99.90
9564;DHT22;4820;50.870;4.702;2023-02-11T03:55:29;6.80;99.90
9564;DHT22;4820;50.870;4.702;2023-02-11T03:57:56;6.80;99.90
9564;DHT22;4820;50.870;4.702;2023-02-11T04:00:29;6.90;99.90
9564;DHT22;4820;50.870;4.702;2023-02-11T04:02:55;6.90;99.90
9564;DHT22;4820;50.870;4.702;2023-02-11T04:05:21;6.90;99.90
9564;DHT22;4820;50.870;4.702;2023-02-11T04:07:46;6.90;99.90
9564;DHT22;4820;50.870;4.702;2023-02-11T04:10:12;6.90;99.90
9564;DHT22;4820;50.870;4.702;2023-02-11T04:12:38;6.90;99.90
9564;DHT22;4820;50.870;4.702;2023-02-11T04:15:04;6.90;99.90
9564;DHT22;4820;50.870;4.702;2023-02-11T04:17:30;6.80;99.90
9564;DHT22;4820;50.870;4.702;2023-02-11T04:19:55;6.90;99.90
9564;DHT22;4820;50.870;4.702;2023-02-11T04:22:21;6.90;99.90
9564;DHT22;4820;50.870;4.702;2023-02-11T04:24:46;6.90;99.90
9564;DHT22;4820;50.870;4.702;2023-02-11T04:27:12;6.90;99.90
9564;DHT22;4820;50.870;4.702;2023-02-11T04:29:38;6.90;99.90
9564;DHT22;4820;50.870;4.702;2023-02-11T04:32:03;6.90;99.90
9564;DHT22;4820;50.870;4.702;2023-02-11T04:34:29;6.90;99.90
9564;DHT22;4820;50.870;4.702;2023-02-11T04:36:55;6.80;99.90
9564;DHT22;4820;50.870;4.702;2023-02-11T04:39:22;6.80;99.90
9564;DHT22;4820;50.870;4.702;2023-02-11T04:41:47;6.90;99.90
9564;DHT22;4820;50.870;4.702;2023-02-11T04:44:13;6.80;99.90
9564;DHT22;4820;50.870;4.702;2023-02-11T04:46:39;6.80;99.90
9564;DHT22;4820;50.870;4.702;2023-02-11T04:49:04;6.80;99.90
9564;DHT22;4820;50.870;4.702;2023-02-11T04:51:30;6.80;99.90
9564;DHT22;4820;50.870;4.702;2023-02-11T04:53:56;6.80;99.90
9564;DHT22;4820;50.870;4.702;2023-02-11T04:56:22;6.80;99.90
9564;DHT22;4820;50.870;4.702;2023-02-11T04:58:47;6.80;99.90
9564;DHT22;4820;50.870;4.702;2023-02-11T05:01:14;6.80;99.90
9564;DHT22;4820;50.870;4.702;2023-02-11T05:03:41;6.80;99.90
9564;DHT22;4820;50.870;4.702;2023-02-11T05:06:08;6.80;99.90
9564;DHT22;4820;50.870;4.702;2023-02-11T05:08:34;6.80;99.90
9564;DHT22;4820;50.870;4.702;2023-02-11T05:11:00;6.80;99.90
9564;DHT22;4820;50.870;4.702;2023-02-11T05:13:27;6.80;99.90
9564;DHT22;4820;50.870;4.702;2023-02-11T05:15:53;6.80;99.90
9564;DHT22;4820;50.870;4.702;2023-02-11T05:18:20;6.80;99.90
9564;DHT22;4820;50.870;4.702;2023-02-11T05:20:47;6.80;99.90
9564;DHT22;4820;50.870;4.702;2023-02-11T05:23:12;6.90;99.90
9564;DHT22;4820;50.870;4.702;2023-02-11T05:25:38;6.90;99.90
9564;DHT22;4820;50.870;4.702;2023-02-11T05:28:04;6.90;99.90
9564;DHT22;4820;50.870;4.702;2023-02-11T05:30:30;6.90;99.90
9564;DHT22;4820;50.870;4.702;2023-02-11T05:32:56;6.90;99.90
9564;DHT22;4820;50.870;4.702;2023-02-11T05:35:22;6.90;99.90
9564;DHT22;4820;50.870;4.702;2023-02-11T05:37:49;6.90;99.90
9564;DHT22;4820;50.870;4.702;2023-02-11T05:40:15;6.90;99.90
9564;DHT22;4820;50.870;4.702;2023-02-11T05:42:40;6.90;99.90
9564;DHT22;4820;50.870;4.702;2023-02-11T05:45:06;6.90;99.90
9564;DHT22;4820;50.870;4.702;2023-02-11T05:47:32;6.90;99.90
9564;DHT22;4820;50.870;4.702;2023-02-11T05:49:59;6.90;99.90
9564;DHT22;4820;50.870;4.702;2023-02-11T05:52:24;6.90;99.90
9564;DHT22;4820;50.870;4.702;2023-02-11T05:54:50;6.90;99.90
9564;DHT22;4820;50.870;4.702;2023-02-11T05:57:16;6.90;99.90
9564;DHT22;4820;50.870;4.702;2023-02-11T05:59:43;7.00;99.90
9564;DHT22;4820;50.870;4.702;2023-02-11T06:02:10;6.90;99.90
9564;DHT22;4820;50.870;4.702;2023-02-11T06:04:37;6.90;99.90
9564;DHT22;4820;50.870;4.702;2023-02-11T06:07:03;6.90;99.90
9564;DHT22;4820;50.870;4.702;2023-02-11T06:09:28;6.90;99.90
9564;DHT22;4820;50.870;4.702;2023-02-11T06:11:54;6.90;99.90
9564;DHT22;4820;50.870;4.702;2023-02-11T06:14:19;6.90;99.90
9564;DHT22;4820;50.870;4.702;2023-02-11T06:16:45;6.90;99.90
9564;DHT22;4820;50.870;4.702;2023-02-11T06:19:11;7.00;99.90
9564;DHT22;4820;50.870;4.702;2023-02-11T06:21:38;7.00;99.90
9564;DHT22;4820;50.870;4.702;2023-02-11T06:24:05;7.00;99.90
9564;DHT22;4820;50.870;4.702;2023-02-11T06:26:30;7.00;99.90
9564;DHT22;4820;50.870;4.702;2023-02-11T06:28:59;7.00;99.90
9564;DHT22;4820;50.870;4.702;2023-02-11T06:31:25;7.00;99.90
9564;DHT22;4820;50.870;4.702;2023-02-11T06:33:50;7.00;99.90
9564;DHT22;4820;50.870;4.702;2023-02-11T06:36:18;7.10;99.90
9564;DHT22;4820;50.870;4.702;2023-02-11T06:38:45;7.10;99.90
9564;DHT22;4820;50.870;4.702;2023-02-11T06:41:13;7.00;99.90
9564;DHT22;4820;50.870;4.702;2023-02-11T06:43:39;7.10;99.90
9564;DHT22;4820;50.870;4.702;2023-02-11T06:46:05;7.00;99.90
9564;DHT22;4820;50.870;4.702;2023-02-11T06:48:32;7.10;99.90
9564;DHT22;4820;50.870;4.702;2023-02-11T06:51:01;7.10;99.90
9564;DHT22;4820;50.870;4.702;2023-02-11T06:53:29;7.10;99.90
9564;DHT22;4820;50.870;4.702;2023-02-11T06:55:54;7.10;99.90
9564;DHT22;4820;50.870;4.702;2023-02-11T06:58:20;7.10;99.90
9564;DHT22;4820;50.870;4.702;2023-02-11T07:00:46;7.10;99.90
9564;DHT22;4820;50.870;4.702;2023-02-11T07:03:11;7.20;99.90
9564;DHT22;4820;50.870;4.702;2023-02-11T07:05:37;7.20;99.90
9564;DHT22;4820;50.870;4.702;2023-02-11T07:08:06;7.20;99.90
9564;DHT22;4820;50.870;4.702;2023-02-11T07:10:32;7.30;99.90
9564;DHT22;4820;50.870;4.702;2023-02-11T07:12:59;7.30;99.90
9564;DHT22;4820;50.870;4.702;2023-02-11T07:15:25;7.20;99.90
9564;DHT22;4820;50.870;4.702;2023-02-11T07:17:51;7.30;99.90
9564;DHT22;4820;50.870;4.702;2023-02-11T07:20:16;7.30;99.90
9564;DHT22;4820;50.870;4.702;2023-02-11T07:22:42;7.30;99.90
9564;DHT22;4820;50.870;4.702;2023-02-11T07:25:07;7.30;99.90
9564;DHT22;4820;50.870;4.702;2023-02-11T07:27:34;7.20;99.90
9564;DHT22;4820;50.870;4.702;2023-02-11T07:30:00;7.30;99.90
9564;DHT22;4820;50.870;4.702;2023-02-11T07:32:25;7.30;99.90
9564;DHT22;4820;50.870;4.702;2023-02-11T07:34:51;7.30;99.90
9564;DHT22;4820;50.870;4.702;2023-02-11T07:37:17;7.40;99.90
9564;DHT22;4820;50.870;4.702;2023-02-11T07:39:43;7.30;99.90
9564;DHT22;4820;50.870;4.702;2023-02-11T07:42:08;7.40;99.90
9564;DHT22;4820;50.870;4.702;2023-02-11T07:44:35;7.40;99.90
9564;DHT22;4820;50.870;4.702;2023-02-11T07:47:01;7.40;99.90
9564;DHT22;4820;50.870;4.702;2023-02-11T07:49:28;7.40;99.90
9564;DHT22;4820;50.870;4.702;2023-02-11T07:51:55;7.40;99.90
9564;DHT22;4820;50.870;4.702;2023-02-11T07:54:21;7.40;99.90
9564;DHT22;4820;50.870;4.702;2023-02-11T07:56:47;7.40;99.90
9564;DHT22;4820;50.870;4.702;2023-02-11T07:59:13;7.40;99.90
9564;DHT22;4820;50.870;4.702;2023-02-11T08:01:39;7.40;99.90
9564;DHT22;4820;50.870;4.702;2023-02-11T08:04:04;7.40;99.90
9564;DHT22;4820;50.870;4.702;2023-02-11T08:06:32;7.40;99.90
9564;DHT22;4820;50.870;4.702;2023-02-11T08:09:04;7.50;99.90
9564;DHT22;4820;50.870;4.702;2023-02-11T08:11:30;7.40;99.90
9564;DHT22;4820;50.870;4.702;2023-02-11T08:13:56;7.50;99.90
9564;DHT22;4820;50.870;4.702;2023-02-11T08:16:26;7.50;99.90
9564;DHT22;4820;50.870;4.702;2023-02-11T08:18:54;7.50;99.90
9564;DHT22;4820;50.870;4.702;2023-02-11T08:21:21;7.60;99.90
9564;DHT22;4820;50.870;4.702;2023-02-11T08:23:47;7.50;99.90
9564;DHT22;4820;50.870;4.702;2023-02-11T08:26:20;7.60;99.90
9564;DHT22;4820;50.870;4.702;2023-02-11T08:28:47;7.60;99.90
9564;DHT22;4820;50.870;4.702;2023-02-11T08:31:21;7.60;99.90
9564;DHT22;4820;50.870;4.702;2023-02-11T08:33:47;7.60;99.90
9564;DHT22;4820;50.870;4.702;2023-02-11T08:36:27;7.60;99.90
9564;DHT22;4820;50.870;4.702;2023-02-11T08:38:59;7.50;99.90
9564;DHT22;4820;50.870;4.702;2023-02-11T08:41:25;7.50;99.90
9564;DHT22;4820;50.870;4.702;2023-02-11T08:43:52;7.50;99.90
9564;DHT22;4820;50.870;4.702;2023-02-11T08:46:19;7.50;99.90
9564;DHT22;4820;50.870;4.702;2023-02-11T08:48:45;7.50;99.90
9564;DHT22;4820;50.870;4.702;2023-02-11T08:51:17;7.50;99.90
9564;DHT22;4820;50.870;4.702;2023-02-11T08:53:44;7.60;99.90
9564;DHT22;4820;50.870;4.702;2023-02-11T08:56:11;7.60;99.90
9564;DHT22;4820;50.870;4.702;2023-02-11T08:58:37;7.60;99.90
9564;DHT22;4820;50.870;4.702;2023-02-11T09:01:09;7.60;99.90
9564;DHT22;4820;50.870;4.702;2023-02-11T09:03:35;7.60;99.90
9564;DHT22;4820;50.870;4.702;2023-02-11T09:06:07;7.60;99.90
9564;DHT22;4820;50.870;4.702;2023-02-11T09:08:35;7.60;99.90
9564;DHT22;4820;50.870;4.702;2023-02-11T09:11:01;7.70;99.90
9564;DHT22;4820;50.870;4.702;2023-02-11T09:13:27;7.70;99.90
9564;DHT22;4820;50.870;4.702;2023-02-11T09:15:52;7.70;99.90
9564;DHT22;4820;50.870;4.702;2023-02-11T09:18:18;7.80;99.90
9564;DHT22;4820;50.870;4.702;2023-02-11T09:20:44;7.80;99.90
9564;DHT22;4820;50.870;4.702;2023-02-11T09:23:09;7.80;99.90
9564;DHT22;4820;50.870;4.702;2023-02-11T09:25:38;7.80;99.90
9564;DHT22;4820;50.870;4.702;2023-02-11T09:28:05;7.80;99.90
9564;DHT22;4820;50.870;4.702;2023-02-11T09:30:31;7.80;99.90
9564;DHT22;4820;50.870;4.702;2023-02-11T09:32:57;7.80;99.90
9564;DHT22;4820;50.870;4.702;2023-02-11T09:35:24;7.90;99.90
9564;DHT22;4820;50.870;4.702;2023-02-11T09:37:49;7.90;99.90
9564;DHT22;4820;50.870;4.702;2023-02-11T09:40:16;7.90;99.90
9564;DHT22;4820;50.870;4.702;2023-02-11T09:42:52;8.00;99.90
9564;DHT22;4820;50.870;4.702;2023-02-11T09:45:25;8.00;99.90
9564;DHT22;4820;50.870;4.702;2023-02-11T09:47:55;8.00;99.90
9564;DHT22;4820;50.870;4.702;2023-02-11T09:53:00;8.00;99.90
9564;DHT22;4820;50.870;4.702;2023-02-11T09:55:39;8.00;99.90
9564;DHT22;4820;50.870;4.702;2023-02-11T10:03:25;8.10;99.90
9564;DHT22;4820;50.870;4.702;2023-02-11T10:11:09;8.20;99.90
9564;DHT22;4820;50.870;4.702;2023-02-11T10:20:00;8.30;99.90
9564;DHT22;4820;50.870;4.702;2023-02-11T10:22:36;8.40;99.90
9564;DHT22;4820;50.870;4.702;2023-02-11T10:27:42;8.40;99.90
9564;DHT22;4820;50.870;4.702;2023-02-11T10:30:10;8.50;99.90
9564;DHT22;4820;50.870;4.702;2023-02-11T10:32:45;8.50;99.90
9564;DHT22;4820;50.870;4.702;2023-02-11T10:35:15;8.50;99.90
9564;DHT22;4820;50.870;4.702;2023-02-11T10:37:42;8.60;99.90
9564;DHT22;4820;50.870;4.702;2023-02-11T10:40:22;8.60;99.90
9564;DHT22;4820;50.870;4.702;2023-02-11T10:42:50;8.60;99.90
9564;DHT22;4820;50.870;4.702;2023-02-11T10:48:00;8.50;99.90
9564;DHT22;4820;50.870;4.702;2023-02-11T10:50:30;8.50;99.90
9564;DHT22;4820;50.870;4.702;2023-02-11T10:53:18;8.50;99.90
9564;DHT22;4820;50.870;4.702;2023-02-11T10:55:51;8.50;99.90
9564;DHT22;4820;50.870;4.702;2023-02-11T10:58:59;8.60;99.90
9564;DHT22;4820;50.870;4.702;2023-02-11T11:01:17;8.60;99.90
9564;DHT22;4820;50.870;4.702;2023-02-11T11:03:48;8.60;99.90
9564;DHT22;4820;50.870;4.702;2023-02-11T11:06:14;8.60;99.90
9564;DHT22;4820;50.870;4.702;2023-02-11T11:08:44;8.60;99.90
9564;DHT22;4820;50.870;4.702;2023-02-11T11:11:15;8.60;99.90
9564;DHT22;4820;50.870;4.702;2023-02-11T11:13:58;8.60;99.90
9564;DHT22;4820;50.870;4.702;2023-02-11T11:16:32;8.50;99.90
9564;DHT22;4820;50.870;4.702;2023-02-11T11:21:39;8.60;99.90
9564;DHT22;4820;50.870;4.702;2023-02-11T11:24:17;8.60;99.90
9564;DHT22;4820;50.870;4.702;2023-02-11T11:26:49;8.70;99.90
9564;DHT22;4820;50.870;4.702;2023-02-11T11:29:37;8.60;99.90
9564;DHT22;4820;50.870;4.702;2023-02-11T11:32:29;8.60;99.90
9564;DHT22;4820;50.870;4.702;2023-02-11T11:35:01;8.70;99.90
9564;DHT22;4820;50.870;4.702;2023-02-11T11:37:37;8.70;99.90
9564;DHT22;4820;50.870;4.702;2023-02-11T11:40:23;8.70;99.90
9564;DHT22;4820;50.870;4.702;2023-02-11T11:43:16;8.70;99.90
9564;DHT22;4820;50.870;4.702;2023-02-11T11:45:55;8.70;99.90
9564;DHT22;4820;50.870;4.702;2023-02-11T11:48:36;8.70;99.90
9564;DHT22;4820;50.870;4.702;2023-02-11T11:51:09;8.70;99.90
9564;DHT22;4820;50.870;4.702;2023-02-11T11:56:21;8.80;99.90
9564;DHT22;4820;50.870;4.702;2023-02-11T11:58:48;8.80;99.90
9564;DHT22;4820;50.870;4.702;2023-02-11T12:23:44;9.20;99.90
9564;DHT22;4820;50.870;4.702;2023-02-11T12:26:21;9.30;99.90
9564;DHT22;4820;50.870;4.702;2023-02-11T12:41:03;9.20;99.90
9564;DHT22;4820;50.870;4.702;2023-02-11T12:43:39;9.10;99.90
9564;DHT22;4820;50.870;4.702;2023-02-11T12:49:31;9.10;99.90
9564;DHT22;4820;50.870;4.702;2023-02-11T12:52:06;9.00;99.90
9564;DHT22;4820;50.870;4.702;2023-02-11T12:54:47;9.00;99.90
9564;DHT22;4820;50.870;4.702;2023-02-11T12:57:28;9.00;99.90
9564;DHT22;4820;50.870;4.702;2023-02-11T13:00:15;9.00;99.90
9564;DHT22;4820;50.870;4.702;2023-02-11T13:05:26;9.10;99.90
9564;DHT22;4820;50.870;4.702;2023-02-11T13:08:01;9.10;99.90
9564;DHT22;4820;50.870;4.702;2023-02-11T13:10:40;9.10;99.90
9564;DHT22;4820;50.870;4.702;2023-02-11T13:13:22;9.10;99.90
9564;DHT22;4820;50.870;4.702;2023-02-11T13:16:01;9.20;99.90
9564;DHT22;4820;50.870;4.702;2023-02-11T13:24:31;9.20;99.90
9564;DHT22;4820;50.870;4.702;2023-02-11T13:30:30;9.20;99.90
9564;DHT22;4820;50.870;4.702;2023-02-11T13:38:26;9.20;99.90
9564;DHT22;4820;50.870;4.702;2023-02-11T13:43:58;9.30;99.90
9564;DHT22;4820;50.870;4.702;2023-02-11T13:46:28;9.30;99.90
9564;DHT22;4820;50.870;4.702;2023-02-11T13:49:25;9.40;99.90
9564;DHT22;4820;50.870;4.702;2023-02-11T13:51:53;9.40;99.90
9564;DHT22;4820;50.870;4.702;2023-02-11T13:54:39;9.40;99.90
9564;DHT22;4820;50.870;4.702;2023-02-11T14:02:38;9.50;99.90
9564;DHT22;4820;50.870;4.702;2023-02-11T14:05:27;9.50;99.90
9564;DHT22;4820;50.870;4.702;2023-02-11T14:08:16;9.50;99.90
9564;DHT22;4820;50.870;4.702;2023-02-11T14:21:28;9.40;99.90
9564;DHT22;4820;50.870;4.702;2023-02-11T14:27:08;9.40;99.90
9564;DHT22;4820;50.870;4.702;2023-02-11T14:29:50;9.40;99.90
9564;DHT22;4820;50.870;4.702;2023-02-11T14:32:40;9.40;99.90
9564;DHT22;4820;50.870;4.702;2023-02-11T14:35:35;9.40;99.90
9564;DHT22;4820;50.870;4.702;2023-02-11T14:38:33;9.40;99.90
9564;DHT22;4820;50.870;4.702;2023-02-11T14:41:48;9.40;99.90
9564;DHT22;4820;50.870;4.702;2023-02-11T14:44:24;9.40;99.90
9564;DHT22;4820;50.870;4.702;2023-02-11T14:46:54;9.40;99.90
9564;DHT22;4820;50.870;4.702;2023-02-11T14:49:30;9.40;99.90
9564;DHT22;4820;50.870;4.702;2023-02-11T14:52:05;9.50;99.90
9564;DHT22;4820;50.870;4.702;2023-02-11T14:54:33;9.50;99.90
9564;DHT22;4820;50.870;4.702;2023-02-11T14:57:08;9.50;99.90
9564;DHT22;4820;50.870;4.702;2023-02-11T14:59:34;9.50;99.90
9564;DHT22;4820;50.870;4.702;2023-02-11T15:02:00;9.50;99.90
9564;DHT22;4820;50.870;4.702;2023-02-11T15:04:30;9.40;99.90
9564;DHT22;4820;50.870;4.702;2023-02-11T15:06:58;9.50;99.90
9564;DHT22;4820;50.870;4.702;2023-02-11T15:09:38;9.50;99.90
9564;DHT22;4820;50.870;4.702;2023-02-11T15:12:43;9.50;99.90
9564;DHT22;4820;50.870;4.702;2023-02-11T15:15:03;9.50;99.90
9564;DHT22;4820;50.870;4.702;2023-02-11T15:17:30;9.50;99.90
9564;DHT22;4820;50.870;4.702;2023-02-11T15:19:59;9.50;99.90
9564;DHT22;4820;50.870;4.702;2023-02-11T15:22:27;9.50;99.90
9564;DHT22;4820;50.870;4.702;2023-02-11T15:25:09;9.50;99.90
9564;DHT22;4820;50.870;4.702;2023-02-11T15:27:53;9.40;99.90
9564;DHT22;4820;50.870;4.702;2023-02-11T15:32:50;9.40;99.90
9564;DHT22;4820;50.870;4.702;2023-02-11T15:35:17;9.40;99.90
9564;DHT22;4820;50.870;4.702;2023-02-11T15:37:43;9.40;99.90
9564;DHT22;4820;50.870;4.702;2023-02-11T15:40:20;9.30;99.90
9564;DHT22;4820;50.870;4.702;2023-02-11T15:42:54;9.30;99.90
9564;DHT22;4820;50.870;4.702;2023-02-11T15:45:23;9.30;99.90
9564;DHT22;4820;50.870;4.702;2023-02-11T15:48:12;9.30;99.90
9564;DHT22;4820;50.870;4.702;2023-02-11T15:50:39;9.30;99.90
9564;DHT22;4820;50.870;4.702;2023-02-11T15:53:41;9.40;99.90
9564;DHT22;4820;50.870;4.702;2023-02-11T15:56:21;9.40;99.90
9564;DHT22;4820;50.870;4.702;2023-02-11T15:58:52;9.40;99.90
9564;DHT22;4820;50.870;4.702;2023-02-11T16:01:34;9.40;99.90
9564;DHT22;4820;50.870;4.702;2023-02-11T16:04:02;9.40;99.90
9564;DHT22;4820;50.870;4.702;2023-02-11T16:06:35;9.30;99.90
9564;DHT22;4820;50.870;4.702;2023-02-11T16:09:23;9.40;99.90
9564;DHT22;4820;50.870;4.702;2023-02-11T16:17:22;9.30;99.90
9564;DHT22;4820;50.870;4.702;2023-02-11T16:19:51;9.30;99.90
9564;DHT22;4820;50.870;4.702;2023-02-11T16:22:21;9.30;99.90
9564;DHT22;4820;50.870;4.702;2023-02-11T16:24:50;9.30;99.90
9564;DHT22;4820;50.870;4.702;2023-02-11T16:27:25;9.30;99.90
9564;DHT22;4820;50.870;4.702;2023-02-11T16:29:55;9.30;99.90
9564;DHT22;4820;50.870;4.702;2023-02-11T16:32:23;9.30;99.90
9564;DHT22;4820;50.870;4.702;2023-02-11T16:34:51;9.30;99.90
9564;DHT22;4820;50.870;4.702;2023-02-11T16:37:17;9.30;99.90
9564;DHT22;4820;50.870;4.702;2023-02-11T16:39:42;9.30;99.90
9564;DHT22;4820;50.870;4.702;2023-02-11T16:42:10;9.30;99.90
9564;DHT22;4820;50.870;4.702;2023-02-11T16:44:36;9.30;99.90
9564;DHT22;4820;50.870;4.702;2023-02-11T16:47:13;9.30;99.90
9564;DHT22;4820;50.870;4.702;2023-02-11T16:49:41;9.30;99.90
9564;DHT22;4820;50.870;4.702;2023-02-11T16:52:12;9.30;99.90
9564;DHT22;4820;50.870;4.702;2023-02-11T16:54:38;9.30;99.90
9564;DHT22;4820;50.870;4.702;2023-02-11T16:57:15;9.20;99.90
9564;DHT22;4820;50.870;4.702;2023-02-11T16:59:41;9.30;99.90
9564;DHT22;4820;50.870;4.702;2023-02-11T17:04:44;9.20;99.90
9564;DHT22;4820;50.870;4.702;2023-02-11T17:07:11;9.30;99.90
9564;DHT22;4820;50.870;4.702;2023-02-11T17:09:37;9.30;99.90
9564;DHT22;4820;50.870;4.702;2023-02-11T17:12:03;9.30;99.90
9564;DHT22;4820;50.870;4.702;2023-02-11T17:14:28;9.30;99.90
9564;DHT22;4820;50.870;4.702;2023-02-11T17:16:54;9.30;99.90
9564;DHT22;4820;50.870;4.702;2023-02-11T17:19:21;9.20;99.90
9564;DHT22;4820;50.870;4.702;2023-02-11T17:21:48;9.20;99.90
9564;DHT22;4820;50.870;4.702;2023-02-11T17:24:16;9.20;99.90
9564;DHT22;4820;50.870;4.702;2023-02-11T17:26:43;9.20;99.90
9564;DHT22;4820;50.870;4.702;2023-02-11T17:29:14;9.20;99.90
9564;DHT22;4820;50.870;4.702;2023-02-11T17:31:40;9.20;99.90
9564;DHT22;4820;50.870;4.702;2023-02-11T17:34:06;9.20;99.90
9564;DHT22;4820;50.870;4.702;2023-02-11T17:36:32;9.20;99.90
9564;DHT22;4820;50.870;4.702;2023-02-11T17:38:59;9.20;99.90
9564;DHT22;4820;50.870;4.702;2023-02-11T17:41:25;9.20;99.90
9564;DHT22;4820;50.870;4.702;2023-02-11T17:43:51;9.20;99.90
9564;DHT22;4820;50.870;4.702;2023-02-11T17:46:17;9.20;99.90
9564;DHT22;4820;50.870;4.702;2023-02-11T17:48:42;9.20;99.90
9564;DHT22;4820;50.870;4.702;2023-02-11T17:51:33;9.20;99.90
9564;DHT22;4820;50.870;4.702;2023-02-11T17:54:01;9.20;99.90
9564;DHT22;4820;50.870;4.702;2023-02-11T17:56:28;9.10;99.90
9564;DHT22;4820;50.870;4.702;2023-02-11T17:58:55;9.10;99.90
9564;DHT22;4820;50.870;4.702;2023-02-11T18:01:20;9.10;99.90
9564;DHT22;4820;50.870;4.702;2023-02-11T18:03:48;9.10;99.90
9564;DHT22;4820;50.870;4.702;2023-02-11T18:06:14;9.10;99.90
9564;DHT22;4820;50.870;4.702;2023-02-11T18:08:39;9.10;99.90
9564;DHT22;4820;50.870;4.702;2023-02-11T18:11:11;9.10;99.90
9564;DHT22;4820;50.870;4.702;2023-02-11T18:13:37;9.20;99.90
9564;DHT22;4820;50.870;4.702;2023-02-11T18:16:03;9.20;99.90
9564;DHT22;4820;50.870;4.702;2023-02-11T18:18:29;9.20;99.90
9564;DHT22;4820;50.870;4.702;2023-02-11T18:20:59;9.20;99.90
9564;DHT22;4820;50.870;4.702;2023-02-11T18:23:26;9.20;99.90
9564;DHT22;4820;50.870;4.702;2023-02-11T18:25:52;9.20;99.90
9564;DHT22;4820;50.870;4.702;2023-02-11T18:28:18;9.10;99.90
9564;DHT22;4820;50.870;4.702;2023-02-11T18:30:44;9.10;99.90
9564;DHT22;4820;50.870;4.702;2023-02-11T18:33:09;9.10;99.90
9564;DHT22;4820;50.870;4.702;2023-02-11T18:35:39;9.10;99.90
9564;DHT22;4820;50.870;4.702;2023-02-11T18:38:05;9.10;99.90
9564;DHT22;4820;50.870;4.702;2023-02-11T18:40:31;9.10;99.90
9564;DHT22;4820;50.870;4.702;2023-02-11T18:42:56;9.10;99.90
9564;DHT22;4820;50.870;4.702;2023-02-11T18:45:22;9.10;99.90
9564;DHT22;4820;50.870;4.702;2023-02-11T18:47:49;9.10;99.90
9564;DHT22;4820;50.870;4.702;2023-02-11T18:50:14;9.10;99.90
9564;DHT22;4820;50.870;4.702;2023-02-11T18:52:41;9.10;99.90
9564;DHT22;4820;50.870;4.702;2023-02-11T18:55:07;9.10;99.90
9564;DHT22;4820;50.870;4.702;2023-02-11T18:57:33;9.10;99.90
9564;DHT22;4820;50.870;4.702;2023-02-11T18:59:59;9.10;99.90
9564;DHT22;4820;50.870;4.702;2023-02-11T19:02:24;9.10;99.90
9564;DHT22;4820;50.870;4.702;2023-02-11T19:04:50;9.10;99.90